航空気象通報

ウインドサーファーのための航空気象通報による風予報です。

8/31-9/1の航空気象通報(国内、海外)

2009年08月31日 23時07分27秒 | TAF
羽田空港
TAF RJTT 310844Z 3109/0112 34018KT 8000 FEW010 BKN020
TEMPO 3109/3112 3000 SHRA BR FEW005 BKN007 BKN015
BECMG 3112/3114 30008KT
TEMPO 3117/3124 4000 BR FEW005 BKN009 BKN015
BECMG 0100/0103 10006KT
BECMG 0106/0109 16012KT
日本時間31日18-21時:340度から18ノットの風
21-23時:風が変化
23時-1日09時:300度から8ノットの風
09-12時:風が変化
12-15時:100度から6ノットの風
15-18時:風が変化
18-21時:160度から12ノットの風

但し、31日18-21時の間:ときどき、
但し、1日02-09時の間:ときどき、もや

那覇空港
TAF ROAH 310836Z 3109/0112 06008KT 9999 FEW020
日本時間31日18時-21時:060度から8ノットの風


マウイのカフルイ空港
PHOG 311120Z 3112/0112 05011KT P6SM SCT040
FM312000 05021G28KT P6SM FEW040
FM010500 05012KT P6SM FEW040
ハワイ時間31日02-10時:050度から11ノットの風
10-19時:050度から21ノット、突風28ノット
19時-1日02時:050度から12ノットの風


サイパン空港
PGSN 311131Z 3112/0112 23008KT P6SM VCSH SCT020 SCT040
マリアナ時間31日22時-1日22時:230度から8ノットの風

コメント
この記事をはてなブックマークに追加

8/30-31の航空気象通報(国内、海外)

2009年08月30日 21時24分13秒 | TAF
羽田空港
TAF RJTT 300842Z 3009/3112 02022KT 8000 -SHRA FEW008 BKN015 BKN020
TEMPO 3009/3014 3000 SHRA BR BKN008 BKN015
TEMPO 3018/3024 01025G35KT 3000 SHRA BR BKN006 BKN015
BECMG 3100/3103 36035KT
TEMPO 3100/3106 36038G50KT 1500 +SHRA BR BKN006 BKN015
BECMG 3106/3109 30016KT
日本時間30日18時-31日09時:020度から22ノットの風
09-12時:風が変化
12-15時:360度から35ノットの風
15-18時:風が変化
18-21時:300度から16ノットの風


那覇空港
TAF ROAH 300846Z 3009/3112 10008KT 9999 FEW015 SCT025
BECMG 3010/3012 07008KT
日本時間30日18-19時:100度から8ノットの風
19-21時:風が変化
21時-31日21時:070度から8ノットの風


マウイのカフルイ空港
PHOG 301120Z 3012/3112 06007KT P6SM FEW050
FM302000 05017G26KT P6SM FEW030 SCT050
FM310500 05011G18KT P6SM FEW050
ハワイ時間30日02-10時:060度から7ノットの風
10-19時:050度から17ノット、突風26ノット
19時-31日02時:050度から11ノット、突風18ノット


サイパン空港
PGSN 301138Z 3012/3112 22009KT P6SM VCSH SCT020
マリアナ時間30日22時-31日22時:220度から9ノットの風
コメント
この記事をはてなブックマークに追加

8/29-30の航空気象通報(国内、海外)

2009年08月29日 22時09分11秒 | TAF
羽田空港
TAF RJTT 290841Z 2909/3012 18010KT 9999 FEW015 SCT020
BECMG 2912/2914 04008KT
BECMG 3000/3003 04018KT
TEMPO 3006/3012 04020G30KT
日本時間29日18-21時:180度から10ノットの風
21-23時:風が変化
23時-30日09時:040度から8ノットの風
09-12時:風が変化
12-21時:040度から18ノットの風
但し、15-21時の間:ときどき、040度から20ノット、突風30ノット


那覇空港
TAF AMD ROAH 291116Z 2911/3012 11004KT 9999 SCT020
BECMG 2914/2916 07006KT
日本時間29日20-23時:110度から4ノットの風
23時-30日01時:風が変化
01-21時:070度から6ノットの風


マウイのカフルイ空港
PHOG 291129Z 2912/3012 07010KT P6SM FEW030 SCT100
FM292000 05015G20KT P6SM FEW030
FM300500 07010KT P6SM FEW030
ハワイ時間29日02-10時:070度から10ノットの風
10-19時:050度から15ノット、突風20ノット
19時-30日02時:070度から10ノットの風


サイパン空港
PGSN 291128Z 2912/3012 20008KT P6SM VCSH SCT018 SCT120
マリアナ時間29日22時-30日22時:200度から8ノットの風
コメント
この記事をはてなブックマークに追加

8/28-29の航空気象通報(国内、海外)

2009年08月28日 21時28分24秒 | TAF
羽田空港
TAF RJTT 280837Z 2809/2912 18016KT 9999 FEW030
日本時間28日18時-29日21時:180度から16ノットの風


那覇空港
TAF ROAH 280836Z 2809/2912 04011KT 9999 FEW020
日本時間28日18時-29日21時:040度から11ノットの風


マウイのカフルイ空港
PHOG 281143Z 2812/2912 05010KT P6SM FEW030
FM282000 05015G25KT P6SM FEW030
FM290600 05010KT P6SM FEW030
ハワイ時間28日02-10時:050度から10ノットの風
10-20時:050度から10ノット、突風25ノット
20時-29日02時:050度から10ノットの風


サイパン空港
PGSN 281129Z 2812/2912 19008KT P6SM VCSH SCT017 SCT030 SCT120
マリアナ時間28日22時-29日22時:190度から8ノットの風
コメント
この記事をはてなブックマークに追加

8/27-28の航空気象通報(国内、海外)

2009年08月27日 21時55分02秒 | TAF
羽田空港
TAF RJTT 270841Z 2709/2812 12010KT 9999 FEW020 SCT040
BECMG 2714/2716 03008KT
BECMG 2800/2803 14010KT
日本時間27日18-23時:120度から10ノットの風
23時-28日01時:風が変化
01-09時:030度から8ノットの風
09-12時:風が変化
12-21時:140度から10ノットの風


那覇空港
TAF AMD ROAH 271101Z 2711/2812 12005KT 9999 FEW025
BECMG 2721/2724 02010KT
日本時間27日18時-28日06時:120度から5ノットの風
06-21時:020度から10ノットの風


マウイのカフルイ空港
PHOG 271131Z 2712/2812 05010KT P6SM FEW030
FM272000 05015G25KT P6SM FEW030 SCT050
FM280600 05010KT P6SM FEW030
ハワイ時間27日02-10時:050度から10ノットの風
10-20時:050度から15ノット、突風25ノット
20時-28日02時:050度から10ノットの風


サイパン空港
PGSN 271140Z 2712/2812 24009KT P6SM VCSH FEW018 SCT040 BKN110
TEMPO 2714/2717 4SM SHRA BKN015 OVC030
マリアナ時間27日22時-28日22時:240度から9ノットの風

但し、28日00-03時の間:ときどき
コメント
この記事をはてなブックマークに追加